Chicago, IL

12:22 AM CST on February 08, 2016 (GMT -0600)
West Loop | | Change Station
CLOSE
Current Station
Personal Weather Station
Location: Chicago, IL
Elevation: 571 ft
Nearby Weather Stations

Elev 571 ft 41.88 °N, 87.64 °W | Updated 15 seconds ago

Clear
Clear
36.5 °F
Feels Like 31 °F
N
6.3
Wind Variable Wind from SW

Today
High -- | Low -- °F
--% Chance of Precip.
Yesterday
High -- | Low -- °F
Precip. -- in
Pressure 29.71 in
Visibility 10.0 miles
Clouds Few 15000 ft
Windchill 31 °F
Dew Point 28 °F
Humidity 71%
Rainfall 0.00 in
Snow Depth Not available.
6:55 AM 5:14 PM
Waning Crescent, 0% visible
METAR KMDW 080553Z 23007KT 10SM FEW150 01/M03 A2969 RMK AO2 SLP061 T00111033 10061 20011 400780011 58017
Pressure 29.71 in
Visibility 10.0 miles
Clouds Few 15000 ft
Windchill 31 °F
Dew Point 28 °F
Humidity 71%
Rainfall 0.00 in
Snow Depth Not available.
6:55 AM 5:14 PM
Waning Crescent, 0% visible
METAR KMDW 080553Z 23007KT 10SM FEW150 01/M03 A2969 RMK AO2 SLP061 T00111033 10061 20011 400780011 58017

10-Day Weather Forecast

Almanac

Astronomy

Feb. 08, 2016 Rise Set
Actual Time
Civil Twilight
Nautical Twilight
Astronomical Twilight
Moon
Length of Visible Light
Length of Day
Tomorrow will be .
, % of the Moon is Illuminated

Today's Extremes

State Highs State Lows

Community

WunderPhotos

Upload Photos

1,891,393 photos uploaded!

WunderBlog® & News

Nearby

Air Quality

  Air Quality AQ Index Pollutant
Not available.

Snow Depth

Station Depth Elevation

Earthquake Activity

City Distance Mag. Time & Date
Minimum magnitude displayed is 2.5.

Coastal Water Temperatures

Place Temperature

Stations

Nearby Weather Stations

Station Location Temp. Windchill Dew Point Humidity Wind Precip. Elev Updated Type
                   

Watches & Warnings

There are currently no watches in effect.